Time;durP1;ratioP1;P1;durP2;ratioP2;P2;SDS_P1;SDS_P2;PMS_P1;PMS_P2;Temp;Humidity;BMP_temperature;BMP_pressure;BME280_temperature;BME280_humidity;BME280_pressure;Samples;Min_cycle;Max_cycle;Signal;HPM_P1;HPM_P2
2021/10/27 00:02:14;;;;;;;;;18.50;16.75;;;;;11.93;80.37;102298.06;5034392;28;45452;-72
2021/10/27 00:04:40;;;;;;;;;17.00;12.50;;;;;11.87;80.45;102291.19;5034665;28;45315;-71
2021/10/27 00:07:05;;;;;;;;;16.50;16.00;;;;;11.89;80.26;102294.63;5035508;28;45494;-71
2021/10/27 00:09:30;;;;;;;;;12.00;11.00;;;;;11.89;80.78;102306.94;5015633;28;47225;-72
2021/10/27 00:11:56;;;;;;;;;20.00;15.00;;;;;11.86;80.18;102301.75;5034624;28;45368;-72
2021/10/27 00:14:21;;;;;;;;;19.50;13.75;;;;;11.86;80.69;102297.34;5034840;28;45509;-71
2021/10/27 00:17:06;;;;;;;;;15.75;12.75;;;;;11.87;80.73;102298.22;5091166;22;47029;-70
2021/10/27 00:19:31;;;;;;;;;16.50;15.75;;;;;11.85;80.97;102293.00;5012348;28;45544;-72
2021/10/27 00:21:56;;;;;;;;;20.75;13.00;;;;;11.85;80.94;102305.28;5022265;28;45413;-71
2021/10/27 00:24:21;;;;;;;;;15.00;14.00;;;;;11.83;80.55;102299.19;5015177;28;45907;-71
2021/10/27 00:26:47;;;;;;;;;22.25;15.50;;;;;11.82;80.57;102302.72;5014867;28;45534;-72
2021/10/27 00:29:12;;;;;;;;;15.75;12.50;;;;;11.80;80.48;102301.84;5019072;28;46378;-71
2021/10/27 00:31:38;;;;;;;;;18.00;11.25;;;;;11.77;80.35;102303.66;5015977;28;45702;-71
2021/10/27 00:34:03;;;;;;;;;18.50;13.25;;;;;11.76;80.35;102301.06;5017923;28;45924;-72
2021/10/27 00:36:28;;;;;;;;;11.00;10.25;;;;;11.71;80.44;102297.66;5018161;28;45448;-71
2021/10/27 00:38:54;;;;;;;;;15.25;15.00;;;;;11.71;80.62;102306.44;5015385;28;46373;-72
2021/10/27 00:41:19;;;;;;;;;13.75;12.00;;;;;11.68;80.46;102309.13;5014220;28;45412;-71
2021/10/27 00:43:44;;;;;;;;;12.00;11.00;;;;;11.64;80.63;102299.59;5014969;28;45551;-72
2021/10/27 00:46:24;;;;;;;;;20.00;16.00;;;;;11.64;80.57;102306.59;5014225;28;45340;-71
2021/10/27 00:48:51;;;;;;;;;15.50;13.00;;;;;11.61;80.74;102304.91;5014100;28;46312;-72
2021/10/27 00:51:18;;;;;;;;;22.00;18.25;;;;;11.59;80.88;102309.34;5013046;28;46224;-71
2021/10/27 00:53:47;;;;;;;;;18.50;15.50;;;;;11.59;80.67;102308.47;5014362;28;45413;-72
2021/10/27 00:56:13;;;;;;;;;18.00;14.25;;;;;11.54;80.62;102305.97;5026424;28;45383;-71
2021/10/27 00:58:40;;;;;;;;;13.00;13.00;;;;;11.54;80.57;102308.59;5014961;28;45797;-71
2021/10/27 01:01:06;;;;;;;;;16.75;12.75;;;;;11.49;80.60;102303.41;5015835;28;45474;-71
2021/10/27 01:03:32;;;;;;;;;15.25;13.50;;;;;11.49;80.45;102307.81;5018556;28;45462;-71
2021/10/27 01:05:58;;;;;;;;;17.25;12.00;;;;;11.46;80.44;102314.00;5014395;28;45647;-71
2021/10/27 01:08:24;;;;;;;;;14.25;11.75;;;;;11.43;80.59;102303.56;5013548;28;46480;-72
2021/10/27 01:10:49;;;;;;;;;14.50;13.50;;;;;11.41;80.41;102305.34;5013615;28;45329;-71
2021/10/27 01:13:14;;;;;;;;;14.25;11.00;;;;;11.39;80.46;102301.03;5014033;28;45589;-71
2021/10/27 01:15:41;;;;;;;;;16.00;12.75;;;;;11.35;80.38;102300.22;5013140;28;45466;-72
2021/10/27 01:18:08;;;;;;;;;15.25;11.75;;;;;11.32;80.44;102300.25;5013239;28;46906;-71
2021/10/27 01:20:34;;;;;;;;;18.00;14.75;;;;;11.31;80.80;102306.44;5013869;28;45975;-71
2021/10/27 01:22:59;;;;;;;;;14.75;12.50;;;;;11.28;80.70;102308.28;5016826;28;46168;-71
2021/10/27 01:25:24;;;;;;;;;14.25;12.75;;;;;11.24;80.63;102300.44;5013977;28;45399;-71
2021/10/27 01:27:50;;;;;;;;;14.50;12.25;;;;;11.22;80.58;102296.09;5013388;28;46278;-71
2021/10/27 01:30:21;;;;;;;;;15.25;13.75;;;;;11.26;80.33;102296.91;5013787;28;45471;-71
2021/10/27 01:32:47;;;;;;;;;11.00;9.50;;;;;11.21;80.41;102289.97;5015771;28;45550;-71
2021/10/27 01:35:14;;;;;;;;;12.00;11.25;;;;;11.23;80.45;102295.22;5014511;28;45597;-71
2021/10/27 01:37:41;;;;;;;;;13.50;11.00;;;;;11.20;80.62;102284.75;5014088;28;46281;-71
2021/10/27 01:40:09;;;;;;;;;16.00;11.25;;;;;11.16;80.62;102273.41;5012647;28;45489;-71
2021/10/27 01:42:35;;;;;;;;;15.25;12.25;;;;;11.15;80.48;102278.69;5013383;28;45538;-71
2021/10/27 01:45:00;;;;;;;;;15.50;14.75;;;;;11.13;80.51;102281.38;4994013;28;45424;-71
2021/10/27 01:47:26;;;;;;;;;14.50;11.25;;;;;11.07;80.38;102281.50;5013218;28;45698;-71
2021/10/27 01:49:51;;;;;;;;;9.50;9.25;;;;;11.08;80.59;102279.75;5013272;28;50462;-71
2021/10/27 01:52:17;;;;;;;;;14.75;12.50;;;;;10.96;80.63;102263.31;5013852;28;45506;-71
2021/10/27 01:54:42;;;;;;;;;17.00;13.00;;;;;11.01;80.69;102263.19;5012371;28;45898;-71
2021/10/27 01:57:09;;;;;;;;;17.75;12.25;;;;;11.04;80.94;102272.81;5012557;28;45736;-72
2021/10/27 01:59:35;;;;;;;;;15.75;13.50;;;;;10.99;80.69;102267.63;5012885;28;45478;-71
2021/10/27 02:02:00;;;;;;;;;16.50;12.50;;;;;10.96;80.56;102260.69;5013012;28;45373;-71
2021/10/27 02:04:25;;;;;;;;;16.75;11.75;;;;;10.97;80.56;102264.16;5014018;28;45462;-71
2021/10/27 02:06:51;;;;;;;;;14.00;11.00;;;;;10.95;80.64;102258.91;5012244;28;45470;-71
2021/10/27 02:09:17;;;;;;;;;16.00;12.00;;;;;10.94;80.61;102258.97;5012524;28;45525;-71
2021/10/27 02:11:42;;;;;;;;;18.75;15.00;;;;;10.94;81.04;102256.34;5013614;28;45323;-71
2021/10/27 02:14:07;;;;;;;;;13.25;11.00;;;;;10.89;80.69;102252.94;4994988;28;45337;-71
2021/10/27 02:16:33;;;;;;;;;18.50;15.50;;;;;10.88;80.67;102256.47;5013504;28;45438;-71
2021/10/27 02:18:58;;;;;;;;;13.50;11.00;;;;;10.86;80.61;102253.00;5012977;28;45487;-71
2021/10/27 02:21:23;;;;;;;;;20.75;17.00;;;;;10.83;80.73;102248.66;5014895;28;46183;-71
2021/10/27 02:23:51;;;;;;;;;18.75;15.50;;;;;10.82;80.97;102256.59;5016384;28;45602;-71
2021/10/27 02:26:18;;;;;;;;;21.75;15.50;;;;;10.80;80.73;102250.47;5016682;28;45553;-71
2021/10/27 02:28:44;;;;;;;;;19.25;16.00;;;;;10.80;80.65;102256.59;5016295;28;45401;-71
2021/10/27 02:31:09;;;;;;;;;19.25;14.50;;;;;10.76;80.63;102243.56;5016563;28;45505;-71
2021/10/27 02:33:34;;;;;;;;;17.50;15.50;;;;;10.76;80.59;102246.19;5016084;28;45359;-71
2021/10/27 02:36:00;;;;;;;;;15.25;12.75;;;;;10.71;80.60;102254.16;5015458;28;46334;-71
2021/10/27 02:38:25;;;;;;;;;15.50;14.50;;;;;10.69;80.58;102256.81;5016319;28;45572;-71
2021/10/27 02:40:50;;;;;;;;;19.00;14.25;;;;;10.68;80.99;102257.69;5016811;28;45562;-71
2021/10/27 02:43:16;;;;;;;;;20.25;14.50;;;;;10.66;80.77;102258.66;5016551;28;45659;-71
2021/10/27 02:45:46;;;;;;;;;24.50;17.75;;;;;10.62;80.67;102249.94;5015765;28;46539;-71
2021/10/27 02:48:12;;;;;;;;;17.00;15.50;;;;;10.62;80.68;102255.19;5015989;28;45661;-72
2021/10/27 02:50:37;;;;;;;;;18.75;15.75;;;;;10.61;81.02;102253.47;5015578;28;45384;-72
2021/10/27 02:53:03;;;;;;;;;23.50;17.25;;;;;10.63;81.12;102256.06;5015516;28;45396;-71
2021/10/27 02:55:30;;;;;;;;;24.25;20.25;;;;;10.61;81.06;102257.88;5016769;28;45496;-72
2021/10/27 02:57:57;;;;;;;;;25.00;18.25;;;;;10.56;81.09;102238.69;5015083;28;45883;-71
2021/10/27 03:00:23;;;;;;;;;19.75;15.00;;;;;10.59;81.28;102243.84;5015568;28;45363;-71
2021/10/27 03:02:49;;;;;;;;;16.00;14.50;;;;;10.58;81.26;102248.25;5015834;28;45395;-71
2021/10/27 03:05:14;;;;;;;;;16.00;13.75;;;;;10.54;81.32;102249.19;5015407;28;46092;-71
2021/10/27 03:07:40;;;;;;;;;21.00;17.00;;;;;10.54;81.50;102250.97;5015928;28;45470;-71
2021/10/27 03:10:06;;;;;;;;;15.00;13.75;;;;;10.51;81.21;102254.53;5015435;28;45518;-71
2021/10/27 03:12:31;;;;;;;;;19.50;13.50;;;;;10.51;81.31;102251.91;4998121;28;45499;-71
2021/10/27 03:14:56;;;;;;;;;21.25;19.75;;;;;10.51;81.36;102251.03;5015163;28;47971;-71
2021/10/27 03:17:22;;;;;;;;;19.50;16.25;;;;;10.49;80.98;102256.31;5014777;28;45598;-72
2021/10/27 03:19:47;;;;;;;;;16.00;15.25;;;;;10.49;81.04;102258.94;5015990;28;45392;-71
2021/10/27 03:22:12;;;;;;;;;17.25;14.00;;;;;10.46;81.18;102253.75;5015659;28;45475;-71
2021/10/27 03:24:38;;;;;;;;;16.25;14.75;;;;;10.45;81.45;102246.75;5014976;28;46256;-72
2021/10/27 03:27:03;;;;;;;;;12.50;10.00;;;;;10.45;81.01;102249.41;5015578;28;45574;-71
2021/10/27 03:29:29;;;;;;;;;20.75;14.25;;;;;10.43;81.12;102248.53;5015837;28;45380;-71
2021/10/27 03:31:54;;;;;;;;;19.75;15.00;;;;;10.41;81.48;102243.31;5015547;28;45515;-72
2021/10/27 03:34:20;;;;;;;;;19.00;15.00;;;;;10.44;81.60;102243.28;5015700;28;47406;-71
2021/10/27 03:36:45;;;;;;;;;16.25;12.75;;;;;10.42;81.54;102241.56;5015238;28;45584;-71
2021/10/27 03:39:11;;;;;;;;;22.00;17.00;;;;;10.41;81.58;102240.69;5015599;28;45386;-71
2021/10/27 03:41:37;;;;;;;;;15.00;13.00;;;;;10.41;81.71;102239.81;5015478;28;45579;-71
2021/10/27 03:44:02;;;;;;;;;15.50;15.00;;;;;10.41;81.78;102242.44;5015082;28;45554;-71
2021/10/27 03:46:27;;;;;;;;;15.25;12.75;;;;;10.39;81.92;102239.00;5015749;28;45461;-71
2021/10/27 03:48:53;;;;;;;;;19.50;15.50;;;;;10.38;81.74;102239.88;5015358;28;45325;-71
2021/10/27 03:51:19;;;;;;;;;19.75;14.00;;;;;10.38;82.13;102240.72;5015160;28;45372;-71
2021/10/27 03:53:45;;;;;;;;;15.50;14.50;;;;;10.34;82.27;102235.59;5015402;28;46155;-71
2021/10/27 03:56:11;;;;;;;;;17.25;15.00;;;;;10.36;82.40;102244.28;5014726;28;45471;-71
2021/10/27 03:58:36;;;;;;;;;17.25;15.25;;;;;10.36;82.17;102253.03;5015845;28;45402;-71
2021/10/27 04:01:02;;;;;;;;;24.00;16.25;;;;;10.32;82.20;102251.34;4997478;28;45509;-71
2021/10/27 04:03:28;;;;;;;;;19.25;14.75;;;;;10.30;nan;102247.91;5014390;28;46421;-72
2021/10/27 04:05:53;;;;;;;;;19.25;13.50;;;;;10.30;82.37;102249.66;5014584;28;45525;-71
2021/10/27 04:08:19;;;;;;;;;19.50;17.00;;;;;10.28;82.34;102247.03;5014334;28;50216;-71
2021/10/27 04:10:45;;;;;;;;;18.75;18.75;;;;;10.30;82.14;102252.28;5015455;28;46133;-71
2021/10/27 04:13:15;;;;;;;;;24.50;18.75;;;;;10.29;82.79;102245.31;5015518;28;46200;-71
2021/10/27 04:15:40;;;;;;;;;25.50;19.50;;;;;10.28;82.88;102247.03;5015040;28;45982;-71
2021/10/27 04:18:06;;;;;;;;;18.50;15.25;;;;;10.29;83.05;102242.69;5014129;28;45426;-71
2021/10/27 04:20:32;;;;;;;;;21.50;18.50;;;;;10.26;82.95;102240.09;5013939;28;45513;-72
2021/10/27 04:22:57;;;;;;;;;20.25;17.00;;;;;10.26;83.05;102238.34;5013785;28;48015;-72
2021/10/27 04:25:22;;;;;;;;;21.25;14.25;;;;;10.25;82.79;102241.88;5015508;28;45608;-71
2021/10/27 04:27:48;;;;;;;;;19.50;16.00;;;;;10.23;82.53;102246.22;5014985;28;45491;-71
2021/10/27 04:30:13;;;;;;;;;8.50;7.25;;;;;10.19;82.95;102240.19;5014357;28;45665;-71
2021/10/27 04:32:41;;;;;;;;;19.50;16.75;;;;;10.15;82.87;102237.63;5014342;28;46538;-72
2021/10/27 04:35:07;;;;;;;;;15.25;14.50;;;;;10.17;83.17;102241.94;5014297;28;45545;-72
2021/10/27 04:37:35;;;;;;;;;22.25;16.00;;;;;10.15;83.31;102254.25;5015514;28;45511;-71
2021/10/27 04:40:01;;;;;;;;;17.75;17.50;;;;;10.17;83.46;102254.22;5014225;28;45467;-72
2021/10/27 04:42:26;;;;;;;;;17.75;15.75;;;;;10.13;83.11;102250.78;5014891;28;45628;-72
2021/10/27 04:44:52;;;;;;;;;19.00;16.00;;;;;10.12;83.64;102253.44;5013300;28;45438;-71
2021/10/27 04:47:17;;;;;;;;;17.50;13.00;;;;;10.13;83.02;102257.81;5014703;28;45707;-71
2021/10/27 04:49:42;;;;;;;;;19.50;18.50;;;;;10.05;83.42;102241.28;5014862;28;45499;-72
2021/10/27 04:52:08;;;;;;;;;22.00;17.00;;;;;10.10;83.20;102250.84;5013457;28;46316;-71
2021/10/27 04:54:34;;;;;;;;;18.00;18.00;;;;;10.12;83.22;102259.53;5013739;28;46667;-71
2021/10/27 04:56:59;;;;;;;;;16.00;16.00;;;;;10.13;83.24;102263.06;5013667;28;50755;-72
2021/10/27 04:59:28;;;;;;;;;22.50;19.75;;;;;10.09;83.44;102259.63;5013239;28;45674;-71
2021/10/27 05:01:53;;;;;;;;;16.25;15.50;;;;;10.09;83.49;102258.75;5014707;28;45628;-71
2021/10/27 05:04:19;;;;;;;;;15.25;13.50;;;;;10.06;83.03;102264.91;5014080;28;45495;-71
2021/10/27 05:06:44;;;;;;;;;16.00;14.75;;;;;10.07;83.06;102271.03;5013726;28;45463;-71
2021/10/27 05:09:10;;;;;;;;;19.25;15.50;;;;;10.03;83.32;102266.72;5013649;28;45310;-71
2021/10/27 05:11:35;;;;;;;;;24.25;17.50;;;;;10.03;83.41;102262.34;5013980;28;46243;-71
2021/10/27 05:14:01;;;;;;;;;23.75;21.25;;;;;10.03;83.50;102264.09;5013647;28;45561;-71
2021/10/27 05:16:26;;;;;;;;;21.75;17.00;;;;;10.00;83.71;102257.13;5014254;28;45328;-71
2021/10/27 05:18:51;;;;;;;;;22.50;19.25;;;;;10.00;83.75;102265.00;5000033;28;45640;-71
2021/10/27 05:21:17;;;;;;;;;22.25;18.00;;;;;9.98;83.50;102261.56;4993998;28;46358;-72
2021/10/27 05:23:42;;;;;;;;;18.75;16.75;;;;;9.93;83.51;102264.25;4993039;28;48617;-72
2021/10/27 05:26:07;;;;;;;;;11.75;10.75;;;;;9.94;83.24;102265.97;4993911;28;45427;-72
2021/10/27 05:28:33;;;;;;;;;17.00;15.75;;;;;9.91;83.19;102262.53;4993803;28;45407;-71
2021/10/27 05:30:58;;;;;;;;;26.00;18.50;;;;;9.88;83.27;102266.06;4993473;28;45589;-72
2021/10/27 05:33:23;;;;;;;;;17.75;15.25;;;;;9.89;83.47;102266.94;4993238;28;45736;-72
2021/10/27 05:35:49;;;;;;;;;24.50;20.25;;;;;9.87;83.16;102255.59;4993853;28;45606;-72
2021/10/27 05:38:14;;;;;;;;;19.25;15.00;;;;;9.86;83.07;102254.72;4993477;28;45290;-71
2021/10/27 05:40:39;;;;;;;;;20.25;15.50;;;;;9.85;83.15;102260.84;4994766;28;46335;-71
2021/10/27 05:43:10;;;;;;;;;24.00;19.50;;;;;9.84;83.14;102256.50;4992686;28;45335;-71
2021/10/27 05:45:35;;;;;;;;;26.75;19.00;;;;;9.85;83.27;102250.34;4993647;28;45797;-71
2021/10/27 05:48:02;;;;;;;;;25.25;19.25;;;;;9.83;83.35;102236.41;4993053;28;45630;-71
2021/10/27 05:50:34;;;;;;;;;25.75;19.50;;;;;9.82;83.26;102234.66;4993160;28;45649;-71
2021/10/27 05:55:43;;;;;;;;;26.25;19.75;;;;;9.83;82.93;102248.66;4995322;28;45422;-72
2021/10/27 05:58:10;;;;;;;;;22.25;20.00;;;;;9.82;82.91;102241.69;4997035;28;45278;-71
2021/10/27 06:00:37;;;;;;;;;27.25;20.00;;;;;9.82;83.05;102246.94;4995513;28;46843;-71
2021/10/27 06:03:02;;;;;;;;;26.50;22.00;;;;;9.81;82.95;102237.28;4996794;28;45976;-71
2021/10/27 06:05:29;;;;;;;;;28.75;24.50;;;;;9.80;83.37;102236.44;4996943;28;45396;-71
2021/10/27 06:07:54;;;;;;;;;21.00;17.75;;;;;9.80;83.47;102231.19;4997555;28;45493;-71
2021/10/27 06:10:21;;;;;;;;;28.00;22.50;;;;;9.79;83.70;102237.34;4996729;28;45473;-71
2021/10/27 06:12:49;;;;;;;;;29.50;26.25;;;;;9.77;83.45;102240.88;4994189;28;45941;-71
2021/10/27 06:15:16;;;;;;;;;20.75;19.25;;;;;9.77;83.45;102236.50;4996362;28;45567;-71
2021/10/27 06:17:42;;;;;;;;;25.50;21.50;;;;;9.74;83.51;102233.03;5001225;28;45570;-72
2021/10/27 06:20:08;;;;;;;;;21.25;20.25;;;;;9.75;83.39;102234.78;5015843;28;45470;-71
2021/10/27 06:22:33;;;;;;;;;20.50;19.00;;;;;9.74;83.62;102240.91;5016803;28;45527;-71
2021/10/27 06:25:00;;;;;;;;;25.50;21.25;;;;;9.72;83.73;102246.19;5019507;28;45450;-71
2021/10/27 06:27:25;;;;;;;;;23.00;18.00;;;;;9.70;83.67;102247.97;5016980;28;45453;-72
2021/10/27 06:29:56;;;;;;;;;20.50;18.50;;;;;9.68;84.00;102245.38;5016273;28;47359;-71
2021/10/27 06:32:38;;;;;;;;;24.25;21.50;;;;;9.69;83.72;102251.50;4987750;28;46384;-71
2021/10/27 06:35:10;;;;;;;;;23.25;20.00;;;;;9.66;83.95;102249.78;5015642;28;45687;-71
2021/10/27 06:48:25;;;;;;;;;31.75;20.00;;;;;9.73;83.82;102260.19;5015068;28;45351;-71
2021/10/27 06:50:50;;;;;;;;;25.50;22.00;;;;;9.72;83.92;102251.44;5014014;28;45601;-72
2021/10/27 06:53:15;;;;;;;;;26.25;23.75;;;;;9.77;83.76;102267.13;5013460;28;45567;-72
2021/10/27 06:55:41;;;;;;;;;20.25;18.25;;;;;9.80;83.92;102267.94;5016443;28;45296;-72
2021/10/27 06:58:09;;;;;;;;;25.67;22.67;;;;;9.86;83.52;102277.47;4996749;28;45510;-72
2021/10/27 07:05:47;;;;;;;;;18.00;15.00;;;;;9.96;83.23;102278.22;5014199;28;45420;-72
2021/10/27 07:16:24;;;;;;;;;25.25;22.50;;;;;10.06;83.34;102287.69;5014642;28;45528;-71
2021/10/27 07:18:49;;;;;;;;;30.67;25.00;;;;;10.14;83.46;102284.03;5013352;28;53799;-72
2021/10/27 07:21:15;;;;;;;;;32.00;25.50;;;;;10.23;83.25;102287.41;5018244;28;51341;-71
2021/10/27 07:23:41;;;;;;;;;29.00;22.75;;;;;10.25;82.96;102286.53;5008649;28;45930;-72
2021/10/27 07:26:07;;;;;;;;;31.50;26.25;;;;;10.35;83.34;102284.63;5015182;28;45471;-72
2021/10/27 07:28:33;;;;;;;;;30.50;24.50;;;;;10.41;82.87;102289.75;5018089;28;45521;-71
2021/10/27 07:31:00;;;;;;;;;32.75;27.50;;;;;10.46;82.88;102295.81;5016438;28;47553;-71
2021/10/27 07:33:27;;;;;;;;;30.75;25.00;;;;;10.54;82.75;102296.50;5018666;28;45401;-71
2021/10/27 07:36:08;;;;;;;;;28.25;25.25;;;;;10.66;82.65;102303.34;5015061;28;45304;-71
2021/10/27 07:41:17;;;;;;;;;28.75;20.75;;;;;10.90;82.37;102296.72;5021985;28;45571;-72
2021/10/27 07:43:43;;;;;;;;;29.00;23.75;;;;;11.04;81.78;102293.84;5016543;28;45485;-71
2021/10/27 07:46:08;;;;;;;;;27.25;22.50;;;;;11.20;81.75;102311.06;5020709;28;45736;-71
2021/10/27 07:48:34;;;;;;;;;30.00;27.25;;;;;11.33;81.17;102317.81;5016391;28;45466;-71
2021/10/27 07:50:59;;;;;;;;;31.75;25.25;;;;;11.41;81.09;102315.00;5014468;28;45490;-71
2021/10/27 07:53:31;;;;;;;;;38.00;28.75;;;;;11.52;80.72;102320.03;5010819;28;45790;-71
2021/10/27 07:55:58;;;;;;;;;40.00;27.00;;;;;11.60;80.76;102316.34;5018320;28;45348;-71
2021/10/27 07:58:25;;;;;;;;;29.75;23.25;;;;;11.71;80.30;102319.59;5012512;28;45530;-72
2021/10/27 08:00:57;;;;;;;;;32.25;25.00;;;;;11.86;80.22;102322.84;5011443;28;45823;-71
2021/10/27 08:03:23;;;;;;;;;28.25;23.00;;;;;12.09;80.03;102319.66;5015601;28;45929;-71
2021/10/27 08:05:49;;;;;;;;;29.25;23.75;;;;;12.24;79.41;102309.59;5011207;28;45498;-71
2021/10/27 08:08:19;;;;;;;;;31.00;25.50;;;;;12.55;78.69;102324.66;5012430;28;45536;-71
2021/10/27 08:10:45;;;;;;;;;31.25;23.75;;;;;12.70;78.66;102326.03;5011348;28;47311;-71
2021/10/27 08:13:10;;;;;;;;;31.75;26.75;;;;;12.79;78.08;102318.75;5011418;28;45708;-71
2021/10/27 08:15:37;;;;;;;;;29.25;25.75;;;;;12.91;77.94;102324.59;5012186;28;45768;-71
2021/10/27 08:18:08;;;;;;;;;31.00;26.75;;;;;12.96;77.71;102320.91;5011451;28;45600;-71
2021/10/27 08:20:34;;;;;;;;;33.00;28.00;;;;;12.98;77.22;102318.22;5010908;28;46086;-71
2021/10/27 08:23:02;;;;;;;;;38.00;30.00;;;;;13.08;77.81;102327.63;5011786;28;45438;-71
2021/10/27 08:25:41;;;;;;;;;31.50;26.25;;;;;13.25;77.45;102330.66;5011583;28;45455;-72
2021/10/27 08:28:11;;;;;;;;;32.00;25.00;;;;;13.36;77.37;102326.84;5012043;28;45470;-71
2021/10/27 08:30:49;;;;;;;;;33.50;27.00;;;;;13.46;76.77;102330.94;5011183;28;46361;-72
2021/10/27 08:34:21;;;;;;;;;23.00;18.50;;;;;13.46;76.58;102315.09;5012191;28;45960;-71
2021/10/27 08:36:09;;;;;;;;;27.75;24.75;;;;;13.55;75.84;102328.91;4993780;28;45608;-72
2021/10/27 08:38:35;;;;;;;;;26.00;21.00;;;;;13.69;76.20;102330.28;5011008;28;45485;-72
2021/10/27 08:41:04;;;;;;;;;28.25;19.00;;;;;13.81;75.48;102329.91;5011148;28;45543;-72
2021/10/27 08:43:30;;;;;;;;;27.75;23.75;;;;;13.75;74.57;102316.88;5009131;28;45942;-72
2021/10/27 08:45:57;;;;;;;;;28.50;23.25;;;;;13.60;74.72;102330.56;5018581;28;45435;-72
2021/10/27 08:48:24;;;;;;;;;26.75;23.50;;;;;13.54;74.97;102321.91;5015182;28;45400;-72
2021/10/27 08:50:50;;;;;;;;;31.75;25.50;;;;;13.43;74.82;102323.13;5012746;28;45591;-72
2021/10/27 08:53:18;;;;;;;;;26.50;22.50;;;;;13.45;75.92;102323.94;5012824;28;45416;-72
2021/10/27 08:55:46;;;;;;;;;31.75;28.50;;;;;13.51;74.78;102319.34;5014089;28;45373;-73
2021/10/27 08:58:21;;;;;;;;;34.50;30.00;;;;;13.62;75.46;102321.66;5016974;28;45579;-72
2021/10/27 09:06:00;;;;;;;;;14.00;10.25;;;;;13.64;74.42;102324.28;5014289;28;45448;-72
2021/10/27 09:41:58;;;;;;;;;30.25;28.00;;;;;14.89;72.74;102296.34;5013517;28;45651;-72
2021/10/27 10:04:10;;;;;;;;;27.50;25.75;;;;;15.77;71.08;102299.22;4933050;28;45518;-72
2021/10/27 10:06:44;;;;;;;;;25.25;22.00;;;;;15.87;69.94;102304.09;4931350;28;45572;-72
2021/10/27 10:09:13;;;;;;;;;23.75;22.50;;;;;16.12;70.34;102301.28;4933377;28;45334;-72
2021/10/27 10:11:40;;;;;;;;;25.75;22.75;;;;;16.34;69.22;102289.78;4932833;28;45797;-72
2021/10/27 10:14:08;;;;;;;;;22.75;19.50;;;;;16.35;68.52;102303.00;4931560;28;45415;-73
2021/10/27 10:16:47;;;;;;;;;25.50;22.00;;;;;16.50;68.95;102297.97;4936512;28;46483;-72
2021/10/27 10:19:19;;;;;;;;;28.50;24.00;;;;;16.80;68.68;102301.09;4929590;28;45513;-72
2021/10/27 10:21:47;;;;;;;;;24.00;22.75;;;;;16.98;67.99;102291.47;4931221;28;45822;-72
2021/10/27 10:24:15;;;;;;;;;27.00;23.00;;;;;17.04;67.81;102302.66;4928720;28;45767;-74
2021/10/27 10:26:42;;;;;;;;;29.75;28.00;;;;;17.37;66.93;102297.59;4931389;28;45517;-73
2021/10/27 10:29:08;;;;;;;;;29.00;26.75;;;;;17.60;66.83;102295.66;4930949;28;45699;-72
2021/10/27 10:31:36;;;;;;;;;30.00;24.00;;;;;17.91;66.40;102301.25;4971691;28;45435;-72
2021/10/27 10:34:07;;;;;;;;;28.50;24.00;;;;;17.94;66.13;102294.91;5013337;28;45843;-72
2021/10/27 10:36:36;;;;;;;;;34.50;29.75;;;;;18.33;65.81;102292.06;5011875;28;46204;-72
2021/10/27 11:26:56;;;;;;;;;23.25;20.00;;;;;20.56;59.47;102249.47;5012739;28;45723;-73
2021/10/27 11:40:16;;;;;;;;;21.00;21.00;;;;;20.54;58.67;102230.88;5014769;28;45626;-72
2021/10/27 11:48:26;;;;;;;;;22.00;21.25;;;;;20.27;58.26;102213.81;5001909;28;45363;-73
2021/10/27 11:50:52;;;;;;;;;24.75;20.75;;;;;20.26;59.00;102210.31;5011459;28;45525;-73
2021/10/27 11:53:24;;;;;;;;;25.25;20.75;;;;;20.28;58.83;102216.41;5012120;28;45690;-73
2021/10/27 11:55:51;;;;;;;;;23.50;19.75;;;;;20.28;58.59;102205.72;5012023;28;45714;-72
2021/10/27 11:58:16;;;;;;;;;21.25;19.00;;;;;20.28;58.80;102213.72;5011723;28;45688;-72
2021/10/27 12:00:44;;;;;;;;;22.25;20.50;;;;;20.24;58.55;102200.66;5014626;28;45529;-72
2021/10/27 12:03:14;;;;;;;;;21.75;19.25;;;;;20.30;58.92;102210.94;5015687;28;45757;-71
2021/10/27 12:06:01;;;;;;;;;24.25;20.25;;;;;20.36;59.02;102199.03;5015107;28;45581;-72
2021/10/27 12:14:25;;;;;;;;;21.50;17.75;;;;;20.33;58.76;102184.09;5015156;28;45925;-72
2021/10/27 12:16:44;;;;;;;;;19.00;17.00;;;;;20.26;58.59;102180.06;5000699;28;45648;-72
2021/10/27 12:19:25;;;;;;;;;16.75;16.00;;;;;20.22;59.18;102171.38;4996123;28;45464;-72
2021/10/27 12:21:53;;;;;;;;;17.25;15.50;;;;;20.26;58.77;102161.41;4987908;28;45555;-72
2021/10/27 12:24:23;;;;;;;;;20.00;18.00;;;;;20.29;58.88;102156.69;4992744;28;45463;-72
2021/10/27 12:26:59;;;;;;;;;18.00;15.75;;;;;20.30;58.96;102147.72;4994557;28;45723;-72
2021/10/27 12:29:26;;;;;;;;;16.25;14.00;;;;;20.28;58.50;102143.47;4993486;28;45373;-72
2021/10/27 12:32:12;;;;;;;;;17.00;17.00;;;;;20.26;58.02;102134.69;4993428;28;45550;-72
2021/10/27 12:34:50;;;;;;;;;17.50;15.75;;;;;20.27;58.49;102134.59;4989889;28;46441;-72
2021/10/27 12:37:29;;;;;;;;;13.25;12.50;;;;;20.25;58.37;102124.94;4989842;28;45846;-72
2021/10/27 12:40:30;;;;;;;;;16.50;13.50;;;;;20.22;58.00;102126.00;4993455;28;45458;-72
2021/10/27 12:43:01;;;;;;;;;12.75;10.25;;;;;20.21;59.44;102120.78;4989652;28;47605;-72
2021/10/27 12:45:35;;;;;;;;;14.25;11.75;;;;;20.13;58.07;102115.03;4991942;28;46037;-72
2021/10/27 12:48:17;;;;;;;;;13.75;12.25;;;;;20.04;58.88;102108.44;4991337;28;45587;-72
2021/10/27 12:50:58;;;;;;;;;11.50;10.50;;;;;20.05;59.38;102104.84;4992084;28;45581;-72
2021/10/27 12:53:42;;;;;;;;;11.25;11.25;;;;;20.06;58.90;102107.41;4991043;28;47786;-71
2021/10/27 12:56:11;;;;;;;;;13.75;13.75;;;;;20.02;58.58;102102.34;4991713;28;45830;-71
2021/10/27 12:58:42;;;;;;;;;9.25;8.00;;;;;19.97;58.68;102080.41;4990048;28;45724;-71
2021/10/27 13:04:07;;;;;;;;;11.00;11.00;;;;;19.96;58.69;102076.91;4992277;28;45331;-71
2021/10/27 13:06:50;;;;;;;;;11.25;9.25;;;;;19.97;58.87;102081.28;4992675;28;45701;-72
2021/10/27 13:09:34;;;;;;;;;9.50;8.00;;;;;19.98;58.67;102080.31;4994436;28;45534;-71
2021/10/27 13:20:07;;;;;;;;;8.25;7.00;;;;;19.83;58.71;102069.72;4986494;28;45745;-71
2021/10/27 13:31:08;;;;;;;;;5.00;4.25;;;;;19.63;57.76;102049.59;4993840;28;45740;-71
2021/10/27 13:33:33;;;;;;;;;5.00;3.75;;;;;19.54;57.63;102059.84;4992690;28;45398;-71
2021/10/27 13:35:59;;;;;;;;;5.75;5.75;;;;;19.49;58.65;102056.59;4994201;28;45713;-71
2021/10/27 13:38:31;;;;;;;;;6.00;5.75;;;;;19.39;58.05;102041.22;4993204;28;45357;-71
2021/10/27 13:40:56;;;;;;;;;4.50;4.25;;;;;19.41;58.11;102050.81;4986600;28;45698;-71
2021/10/27 13:46:11;;;;;;;;;3.25;3.25;;;;;19.28;58.76;102044.53;4993434;28;45810;-72
2021/10/27 13:49:04;;;;;;;;;3.00;3.00;;;;;19.22;58.17;102048.41;4966029;28;47664;-72
2021/10/27 13:57:48;;;;;;;;;4.50;4.00;;;;;19.02;58.62;102036.22;4994631;28;45472;-72
2021/10/27 14:08:25;;;;;;;;;6.25;3.00;;;;;18.64;58.05;102022.41;4927440;28;45418;-72
2021/10/27 14:16:03;;;;;;;;;4.00;3.00;;;;;18.46;58.88;102023.44;4943198;28;45462;-71
2021/10/27 14:18:51;;;;;;;;;2.25;2.25;;;;;18.39;59.62;102017.59;4935336;28;45633;-71
2021/10/27 14:41:22;;;;;;;;;6.50;3.00;;;;;18.04;59.68;101997.38;4996448;28;45619;-70
2021/10/27 15:21:39;;;;;;;;;3.00;2.25;;;;;17.63;59.64;101969.38;4919286;28;45432;-72
2021/10/27 15:24:10;;;;;;;;;2.00;2.00;;;;;17.64;59.38;101972.88;4916056;28;45872;-73
2021/10/27 15:29:28;;;;;;;;;5.00;3.00;;;;;17.57;60.54;101974.16;4920236;28;45595;-71
2021/10/27 15:32:20;;;;;;;;;3.00;3.00;;;;;17.52;60.42;101973.53;4926024;28;45523;-72
2021/10/27 15:40:20;;;;;;;;;3.75;3.75;;;;;17.45;61.70;101970.34;4998083;28;45623;-71
2021/10/27 15:50:29;;;;;;;;;3.50;3.00;;;;;17.28;62.84;101955.28;4901059;28;45569;-72